Main page
METAR-TAF:

METAR-TAF

Airports :

Deputado Luís Eduardo Magalhães International Airport

Salvador, Bahia, Brazil

latitude: 12-54S, longitude: 038-20W, elevation: 6 m

Current weather observation

The report was made 1 hour and 5 minutes ago, at 02:00 UTC
Wind 9 kt from the East/Southeast
Temperature 27°C
Humidity 74%
Pressure 1019 hPa
Visibility 10 km or more
Few clouds at a height of 2300 ft

METAR: SBSV 240200Z 11009KT 9999 FEW023 27/22 Q1019

Time: 00:05 (03:05 UTC)

Forecast

The report was made 6 hours and 5 minutes ago, at 21:00 UTC
Forecast valid from 24 at 00 UTC to 24 at 24 UTC
Wind 7 kt from the East
Visibility: 8000 m
Scattered clouds at a height of 2000 ft

TAF: SBSV 232100Z 2400/2424 10007KT 8000 SCT020 TN25/2408Z TX29/2416Z RMK PEA

Weather observations and forecasts of more than 4000 airports (METAR and TAF reports).

The available stations are represented by yellow and red dots on the map.

Hover mouse over dot to see the name of the station.

Then click to see weather observations and forecasts.

To change the map : click on the green buttons with a black cross to zoom in, on the green button with a dash to zoom out, or on the green arrows for adjacent maps.


METAR-TAF: